Terminal Aerodrome Forecast
Issued by NWS

Home | Current Version | Previous Version | Text Only | Print | Product List | Glossary On
Versions: 1 2 3 4 5 6 7 8 9 10 11 12 13 14 15 16 17 18
000
FTUS42 KFFC 051140
TAFPDK
TAF
KPDK 051140Z 0512/0612 VRB03KT P6SM SKC
     FM051400 08006KT P6SM SCT050
     FM051700 08006KT P6SM BKN050
     FM060000 10006KT P6SM SCT070
     FM060500 09005KT P6SM BKN070
     FM061000 07005KT P6SM SCT015 BKN070=

USA.gov is the U.S. government's official web portal to all federal, state and local government web resources and services.